METAR AND TAF INFORMATION
METAR FOR LTBZ
ADDS - METARS form results

(0850 UTC 17 November 2018)
Data provider http://aviationweather.gov/metar/data/
 
Forecast for: LTBZ (MARISA , TR)
Text: TAF LTBZ 170740Z 1709/1718 06008KT 9999 BKN030
Forecast period: 0900 to 1200 UTC 17 November 2018
Forecast type: FROM: standard forecast or significant change
Winds: from the ENE (60 degrees) at 9 MPH (8 knots; 4.1 m/s)
Visibility: 6 or more miles 10+ km)
Ceiling: 3000 feet AGL
Clouds: broken clouds at 3000 feet AGL
Weather: no significant weather forecast for this period
Text: BECMG 1712/1715 -RA
Forecast period: 1200 to 1800 UTC 17 November 2018
Forecast type: BECOMING: Conditions expected to become as follows by 1500 UTC 17 November 2018
Winds: from the ENE (60 degrees) at 9 MPH (8 knots; 4.1 m/s)
Visibility: 6 or more miles 10+ km)
Ceiling: 3000 feet AGL
Clouds: broken clouds at 3000 feet AGL
Weather: -RA  (light rain)

 AIRPORT MAP

 RUNWAY INFORMATION

 AIRPORT FREQUENCIES

 AIRPORT NEAR NAVIGATION AIDS



Copyright © 2007-2018 Istanbul Virtual Airlines.For flight simulation purposes only.Istanbul Virtual Airlines is a non-profit site run by flight simulation enthusiasts. All Trademarks, Images and Logos are belong to their respective owner.All rights reserved. Developed by Arca Erdik and Aykut Alp Kurt.